sensor_id;sensor_type;location;lat;lon;timestamp;P1;durP1;ratioP1;P2;durP2;ratioP2
22219;SDS011;11279;48.364;10.904;2023-03-03T00:00:01;80.40;;;36.30;;
22219;SDS011;11279;48.364;10.904;2023-03-03T00:01:03;80.13;;;35.28;;
22219;SDS011;11279;48.364;10.904;2023-03-03T00:02:04;83.00;;;36.38;;
22219;SDS011;11279;48.364;10.904;2023-03-03T00:03:05;78.67;;;35.77;;
22219;SDS011;11279;48.364;10.904;2023-03-03T00:04:08;84.55;;;36.13;;
22219;SDS011;11279;48.364;10.904;2023-03-03T00:05:08;85.80;;;37.57;;
22219;SDS011;11279;48.364;10.904;2023-03-03T00:06:10;78.23;;;36.93;;
22219;SDS011;11279;48.364;10.904;2023-03-03T00:07:12;77.75;;;36.78;;
22219;SDS011;11279;48.364;10.904;2023-03-03T00:08:14;85.10;;;37.38;;
22219;SDS011;11279;48.364;10.904;2023-03-03T00:09:15;77.63;;;35.10;;
22219;SDS011;11279;48.364;10.904;2023-03-03T00:10:15;86.60;;;35.77;;
22219;SDS011;11279;48.364;10.904;2023-03-03T00:11:16;81.60;;;36.13;;
22219;SDS011;11279;48.364;10.904;2023-03-03T00:12:19;80.70;;;35.57;;
22219;SDS011;11279;48.364;10.904;2023-03-03T00:13:24;79.80;;;35.85;;
22219;SDS011;11279;48.364;10.904;2023-03-03T00:14:30;84.53;;;35.88;;
22219;SDS011;11279;48.364;10.904;2023-03-03T00:15:32;79.07;;;34.80;;
22219;SDS011;11279;48.364;10.904;2023-03-03T00:16:34;77.83;;;34.13;;
22219;SDS011;11279;48.364;10.904;2023-03-03T00:17:37;86.18;;;36.10;;
22219;SDS011;11279;48.364;10.904;2023-03-03T00:18:39;83.00;;;35.83;;
22219;SDS011;11279;48.364;10.904;2023-03-03T00:19:44;87.90;;;36.83;;
22219;SDS011;11279;48.364;10.904;2023-03-03T00:20:47;83.93;;;36.17;;
22219;SDS011;11279;48.364;10.904;2023-03-03T00:21:49;78.57;;;35.95;;
22219;SDS011;11279;48.364;10.904;2023-03-03T00:22:50;85.68;;;35.40;;
22219;SDS011;11279;48.364;10.904;2023-03-03T00:23:51;79.97;;;35.50;;
22219;SDS011;11279;48.364;10.904;2023-03-03T00:24:52;84.80;;;35.80;;
22219;SDS011;11279;48.364;10.904;2023-03-03T00:25:53;76.30;;;35.13;;
22219;SDS011;11279;48.364;10.904;2023-03-03T00:26:54;85.13;;;35.67;;
22219;SDS011;11279;48.364;10.904;2023-03-03T00:27:59;77.50;;;34.55;;
22219;SDS011;11279;48.364;10.904;2023-03-03T00:29:39;81.30;;;33.25;;
22219;SDS011;11279;48.364;10.904;2023-03-03T00:30:40;81.10;;;35.33;;
22219;SDS011;11279;48.364;10.904;2023-03-03T00:31:40;83.17;;;38.13;;
22219;SDS011;11279;48.364;10.904;2023-03-03T00:32:41;79.27;;;35.73;;
22219;SDS011;11279;48.364;10.904;2023-03-03T00:33:47;79.55;;;36.63;;
22219;SDS011;11279;48.364;10.904;2023-03-03T00:34:54;85.40;;;35.97;;
22219;SDS011;11279;48.364;10.904;2023-03-03T00:35:55;78.97;;;35.70;;
22219;SDS011;11279;48.364;10.904;2023-03-03T00:36:57;79.82;;;35.88;;
22219;SDS011;11279;48.364;10.904;2023-03-03T00:37:58;83.23;;;35.93;;
22219;SDS011;11279;48.364;10.904;2023-03-03T00:39:17;82.07;;;36.45;;
22219;SDS011;11279;48.364;10.904;2023-03-03T00:40:23;86.55;;;36.75;;
22219;SDS011;11279;48.364;10.904;2023-03-03T00:41:26;87.22;;;38.50;;
22219;SDS011;11279;48.364;10.904;2023-03-03T00:42:27;86.07;;;38.03;;
22219;SDS011;11279;48.364;10.904;2023-03-03T00:43:30;95.53;;;40.77;;
22219;SDS011;11279;48.364;10.904;2023-03-03T00:44:40;98.45;;;41.40;;
22219;SDS011;11279;48.364;10.904;2023-03-03T00:45:46;95.30;;;40.28;;
22219;SDS011;11279;48.364;10.904;2023-03-03T00:46:54;103.40;;;41.92;;
22219;SDS011;11279;48.364;10.904;2023-03-03T00:47:56;92.50;;;38.88;;
22219;SDS011;11279;48.364;10.904;2023-03-03T00:48:57;93.13;;;38.15;;
22219;SDS011;11279;48.364;10.904;2023-03-03T00:51:18;90.88;;;35.60;;
22219;SDS011;11279;48.364;10.904;2023-03-03T00:52:26;85.75;;;37.40;;
22219;SDS011;11279;48.364;10.904;2023-03-03T00:53:28;84.78;;;38.13;;
22219;SDS011;11279;48.364;10.904;2023-03-03T00:54:29;91.72;;;37.85;;
22219;SDS011;11279;48.364;10.904;2023-03-03T00:55:30;82.33;;;36.73;;
22219;SDS011;11279;48.364;10.904;2023-03-03T00:56:31;91.15;;;38.78;;
22219;SDS011;11279;48.364;10.904;2023-03-03T00:57:32;82.40;;;35.83;;
22219;SDS011;11279;48.364;10.904;2023-03-03T00:58:32;88.17;;;37.63;;
22219;SDS011;11279;48.364;10.904;2023-03-03T00:59:32;86.70;;;36.70;;
22219;SDS011;11279;48.364;10.904;2023-03-03T01:00:33;91.47;;;38.43;;
22219;SDS011;11279;48.364;10.904;2023-03-03T01:01:34;83.63;;;37.03;;
22219;SDS011;11279;48.364;10.904;2023-03-03T01:02:34;88.30;;;35.83;;
22219;SDS011;11279;48.364;10.904;2023-03-03T01:03:34;77.97;;;35.87;;
22219;SDS011;11279;48.364;10.904;2023-03-03T01:04:35;86.27;;;36.43;;
22219;SDS011;11279;48.364;10.904;2023-03-03T01:05:35;86.83;;;38.67;;
22219;SDS011;11279;48.364;10.904;2023-03-03T01:06:36;91.37;;;37.03;;
22219;SDS011;11279;48.364;10.904;2023-03-03T01:07:36;83.67;;;36.47;;
22219;SDS011;11279;48.364;10.904;2023-03-03T01:08:37;85.77;;;37.77;;
22219;SDS011;11279;48.364;10.904;2023-03-03T01:09:38;88.57;;;34.40;;
22219;SDS011;11279;48.364;10.904;2023-03-03T01:10:42;85.97;;;35.40;;
22219;SDS011;11279;48.364;10.904;2023-03-03T01:11:54;88.03;;;35.83;;
22219;SDS011;11279;48.364;10.904;2023-03-03T01:12:54;79.77;;;34.50;;
22219;SDS011;11279;48.364;10.904;2023-03-03T01:13:56;83.10;;;35.47;;
22219;SDS011;11279;48.364;10.904;2023-03-03T01:14:57;85.87;;;35.73;;
22219;SDS011;11279;48.364;10.904;2023-03-03T01:15:58;79.67;;;35.50;;
22219;SDS011;11279;48.364;10.904;2023-03-03T01:16:59;89.55;;;37.33;;
22219;SDS011;11279;48.364;10.904;2023-03-03T01:17:59;88.53;;;36.67;;
22219;SDS011;11279;48.364;10.904;2023-03-03T01:19:00;94.43;;;38.23;;
22219;SDS011;11279;48.364;10.904;2023-03-03T01:20:00;92.47;;;38.73;;
22219;SDS011;11279;48.364;10.904;2023-03-03T01:21:01;88.30;;;37.63;;
22219;SDS011;11279;48.364;10.904;2023-03-03T01:22:01;88.90;;;37.17;;
22219;SDS011;11279;48.364;10.904;2023-03-03T01:23:02;87.80;;;37.33;;
22219;SDS011;11279;48.364;10.904;2023-03-03T01:24:03;88.10;;;36.67;;
22219;SDS011;11279;48.364;10.904;2023-03-03T01:25:03;83.30;;;37.00;;
22219;SDS011;11279;48.364;10.904;2023-03-03T01:26:04;84.10;;;36.93;;
22219;SDS011;11279;48.364;10.904;2023-03-03T01:27:05;85.50;;;35.67;;
22219;SDS011;11279;48.364;10.904;2023-03-03T01:28:05;94.80;;;37.70;;
22219;SDS011;11279;48.364;10.904;2023-03-03T01:29:06;88.10;;;37.13;;
22219;SDS011;11279;48.364;10.904;2023-03-03T01:30:07;87.53;;;38.50;;
22219;SDS011;11279;48.364;10.904;2023-03-03T01:31:08;86.03;;;37.75;;
22219;SDS011;11279;48.364;10.904;2023-03-03T01:32:08;94.20;;;37.57;;
22219;SDS011;11279;48.364;10.904;2023-03-03T01:33:09;89.03;;;37.27;;
22219;SDS011;11279;48.364;10.904;2023-03-03T01:34:09;85.30;;;37.77;;
22219;SDS011;11279;48.364;10.904;2023-03-03T01:35:10;86.57;;;35.53;;
22219;SDS011;11279;48.364;10.904;2023-03-03T01:36:10;88.73;;;36.10;;
22219;SDS011;11279;48.364;10.904;2023-03-03T01:37:11;85.10;;;37.23;;
22219;SDS011;11279;48.364;10.904;2023-03-03T01:38:12;84.40;;;36.37;;
22219;SDS011;11279;48.364;10.904;2023-03-03T01:39:13;84.78;;;35.40;;
22219;SDS011;11279;48.364;10.904;2023-03-03T01:40:15;93.23;;;39.53;;
22219;SDS011;11279;48.364;10.904;2023-03-03T01:41:17;86.50;;;37.63;;
22219;SDS011;11279;48.364;10.904;2023-03-03T01:42:18;93.70;;;39.07;;
22219;SDS011;11279;48.364;10.904;2023-03-03T01:43:18;87.03;;;36.83;;
22219;SDS011;11279;48.364;10.904;2023-03-03T01:44:19;84.73;;;37.10;;
22219;SDS011;11279;48.364;10.904;2023-03-03T01:47:24;88.00;;;39.85;;
22219;SDS011;11279;48.364;10.904;2023-03-03T01:49:05;86.68;;;36.28;;
22219;SDS011;11279;48.364;10.904;2023-03-03T01:50:11;86.28;;;37.38;;
22219;SDS011;11279;48.364;10.904;2023-03-03T01:51:22;91.28;;;36.85;;
22219;SDS011;11279;48.364;10.904;2023-03-03T01:52:25;84.72;;;37.40;;
22219;SDS011;11279;48.364;10.904;2023-03-03T01:53:40;89.50;;;36.88;;
22219;SDS011;11279;48.364;10.904;2023-03-03T01:54:44;86.38;;;36.08;;
22219;SDS011;11279;48.364;10.904;2023-03-03T01:55:47;91.88;;;38.15;;
22219;SDS011;11279;48.364;10.904;2023-03-03T01:56:48;92.25;;;38.08;;
22219;SDS011;11279;48.364;10.904;2023-03-03T01:57:51;87.53;;;37.83;;
22219;SDS011;11279;48.364;10.904;2023-03-03T01:59:00;84.90;;;37.40;;
22219;SDS011;11279;48.364;10.904;2023-03-03T02:00:04;90.50;;;36.97;;
22219;SDS011;11279;48.364;10.904;2023-03-03T02:01:06;87.07;;;37.28;;
22219;SDS011;11279;48.364;10.904;2023-03-03T02:02:08;88.18;;;37.55;;
22219;SDS011;11279;48.364;10.904;2023-03-03T02:03:09;87.33;;;37.90;;
22219;SDS011;11279;48.364;10.904;2023-03-03T02:04:09;86.03;;;36.77;;
22219;SDS011;11279;48.364;10.904;2023-03-03T02:05:10;80.90;;;36.80;;
22219;SDS011;11279;48.364;10.904;2023-03-03T02:06:15;84.03;;;36.78;;
22219;SDS011;11279;48.364;10.904;2023-03-03T02:07:18;82.00;;;37.40;;
22219;SDS011;11279;48.364;10.904;2023-03-03T02:08:21;86.05;;;38.33;;
22219;SDS011;11279;48.364;10.904;2023-03-03T02:09:29;88.85;;;37.75;;
22219;SDS011;11279;48.364;10.904;2023-03-03T02:10:33;81.53;;;37.03;;
22219;SDS011;11279;48.364;10.904;2023-03-03T02:11:35;91.37;;;36.20;;
22219;SDS011;11279;48.364;10.904;2023-03-03T02:12:38;93.10;;;37.58;;
22219;SDS011;11279;48.364;10.904;2023-03-03T02:13:40;88.07;;;38.17;;
22219;SDS011;11279;48.364;10.904;2023-03-03T02:14:41;82.23;;;36.40;;
22219;SDS011;11279;48.364;10.904;2023-03-03T02:15:41;91.70;;;38.13;;
22219;SDS011;11279;48.364;10.904;2023-03-03T02:16:42;87.30;;;37.43;;
22219;SDS011;11279;48.364;10.904;2023-03-03T02:17:43;89.28;;;36.03;;
22219;SDS011;11279;48.364;10.904;2023-03-03T02:18:44;87.40;;;39.03;;
22219;SDS011;11279;48.364;10.904;2023-03-03T02:21:07;82.60;;;35.53;;
22219;SDS011;11279;48.364;10.904;2023-03-03T02:22:10;88.68;;;35.17;;
22219;SDS011;11279;48.364;10.904;2023-03-03T02:23:21;89.47;;;36.50;;
22219;SDS011;11279;48.364;10.904;2023-03-03T02:24:27;84.32;;;35.60;;
22219;SDS011;11279;48.364;10.904;2023-03-03T02:26:35;93.80;;;36.97;;
22219;SDS011;11279;48.364;10.904;2023-03-03T02:27:39;85.45;;;35.17;;
22219;SDS011;11279;48.364;10.904;2023-03-03T02:28:40;89.07;;;36.70;;
22219;SDS011;11279;48.364;10.904;2023-03-03T02:29:41;84.75;;;37.97;;
22219;SDS011;11279;48.364;10.904;2023-03-03T02:30:41;83.57;;;36.23;;
22219;SDS011;11279;48.364;10.904;2023-03-03T02:31:43;87.57;;;37.33;;
22219;SDS011;11279;48.364;10.904;2023-03-03T02:32:43;92.33;;;38.83;;
22219;SDS011;11279;48.364;10.904;2023-03-03T02:33:45;89.57;;;36.57;;
22219;SDS011;11279;48.364;10.904;2023-03-03T02:34:47;84.38;;;36.40;;
22219;SDS011;11279;48.364;10.904;2023-03-03T02:35:51;88.32;;;37.78;;
22219;SDS011;11279;48.364;10.904;2023-03-03T02:36:51;92.00;;;38.07;;
22219;SDS011;11279;48.364;10.904;2023-03-03T02:37:52;91.93;;;37.80;;
22219;SDS011;11279;48.364;10.904;2023-03-03T02:39:03;91.43;;;37.10;;
22219;SDS011;11279;48.364;10.904;2023-03-03T02:40:13;88.03;;;35.63;;
22219;SDS011;11279;48.364;10.904;2023-03-03T02:41:20;88.50;;;36.33;;
22219;SDS011;11279;48.364;10.904;2023-03-03T02:42:28;85.00;;;37.47;;
22219;SDS011;11279;48.364;10.904;2023-03-03T02:43:30;91.13;;;37.50;;
22219;SDS011;11279;48.364;10.904;2023-03-03T02:44:36;90.35;;;38.35;;
22219;SDS011;11279;48.364;10.904;2023-03-03T02:45:43;87.97;;;37.87;;
22219;SDS011;11279;48.364;10.904;2023-03-03T02:46:45;92.93;;;37.70;;
22219;SDS011;11279;48.364;10.904;2023-03-03T02:47:49;89.20;;;36.65;;
22219;SDS011;11279;48.364;10.904;2023-03-03T02:48:50;87.95;;;37.85;;
22219;SDS011;11279;48.364;10.904;2023-03-03T02:49:50;92.33;;;37.97;;
22219;SDS011;11279;48.364;10.904;2023-03-03T02:50:51;93.63;;;37.87;;
22219;SDS011;11279;48.364;10.904;2023-03-03T02:51:51;90.13;;;37.07;;
22219;SDS011;11279;48.364;10.904;2023-03-03T02:52:52;86.83;;;36.03;;
22219;SDS011;11279;48.364;10.904;2023-03-03T02:53:53;98.10;;;37.13;;
22219;SDS011;11279;48.364;10.904;2023-03-03T02:54:53;85.80;;;37.40;;
22219;SDS011;11279;48.364;10.904;2023-03-03T02:55:54;104.70;;;40.27;;
22219;SDS011;11279;48.364;10.904;2023-03-03T02:56:54;89.27;;;37.30;;
22219;SDS011;11279;48.364;10.904;2023-03-03T02:57:55;89.90;;;37.07;;
22219;SDS011;11279;48.364;10.904;2023-03-03T02:58:56;87.20;;;38.05;;
22219;SDS011;11279;48.364;10.904;2023-03-03T02:59:56;99.70;;;41.43;;
22219;SDS011;11279;48.364;10.904;2023-03-03T03:00:56;93.27;;;38.00;;
22219;SDS011;11279;48.364;10.904;2023-03-03T03:01:57;92.83;;;39.37;;
22219;SDS011;11279;48.364;10.904;2023-03-03T03:02:58;95.07;;;38.23;;
22219;SDS011;11279;48.364;10.904;2023-03-03T03:03:58;88.83;;;38.03;;
22219;SDS011;11279;48.364;10.904;2023-03-03T03:04:59;90.20;;;37.00;;
22219;SDS011;11279;48.364;10.904;2023-03-03T03:05:59;89.67;;;38.53;;
22219;SDS011;11279;48.364;10.904;2023-03-03T03:06:59;91.67;;;37.87;;
22219;SDS011;11279;48.364;10.904;2023-03-03T03:08:00;103.13;;;39.33;;
22219;SDS011;11279;48.364;10.904;2023-03-03T03:09:00;93.40;;;38.57;;
22219;SDS011;11279;48.364;10.904;2023-03-03T03:10:01;89.00;;;37.37;;
22219;SDS011;11279;48.364;10.904;2023-03-03T03:11:02;88.10;;;37.60;;
22219;SDS011;11279;48.364;10.904;2023-03-03T03:12:04;90.57;;;37.95;;
22219;SDS011;11279;48.364;10.904;2023-03-03T03:13:05;91.23;;;38.00;;
22219;SDS011;11279;48.364;10.904;2023-03-03T03:14:06;93.73;;;38.40;;
22219;SDS011;11279;48.364;10.904;2023-03-03T03:15:07;94.43;;;37.92;;
22219;SDS011;11279;48.364;10.904;2023-03-03T03:16:09;87.88;;;38.15;;
22219;SDS011;11279;48.364;10.904;2023-03-03T03:17:09;94.30;;;37.33;;
22219;SDS011;11279;48.364;10.904;2023-03-03T03:18:11;97.15;;;39.25;;
22219;SDS011;11279;48.364;10.904;2023-03-03T03:19:13;91.88;;;38.80;;
22219;SDS011;11279;48.364;10.904;2023-03-03T03:20:13;94.37;;;39.10;;
22219;SDS011;11279;48.364;10.904;2023-03-03T03:21:14;97.53;;;40.03;;
22219;SDS011;11279;48.364;10.904;2023-03-03T03:22:14;94.43;;;39.90;;
22219;SDS011;11279;48.364;10.904;2023-03-03T03:23:15;92.00;;;38.57;;
22219;SDS011;11279;48.364;10.904;2023-03-03T03:24:15;97.53;;;40.23;;
22219;SDS011;11279;48.364;10.904;2023-03-03T03:25:17;89.57;;;38.28;;
22219;SDS011;11279;48.364;10.904;2023-03-03T03:26:17;91.43;;;38.57;;
22219;SDS011;11279;48.364;10.904;2023-03-03T03:27:20;99.38;;;39.72;;
22219;SDS011;11279;48.364;10.904;2023-03-03T03:28:22;93.75;;;39.50;;
22219;SDS011;11279;48.364;10.904;2023-03-03T03:29:22;89.00;;;37.93;;
22219;SDS011;11279;48.364;10.904;2023-03-03T03:30:23;89.50;;;37.23;;
22219;SDS011;11279;48.364;10.904;2023-03-03T03:31:23;97.03;;;39.80;;
22219;SDS011;11279;48.364;10.904;2023-03-03T03:32:24;88.17;;;37.33;;
22219;SDS011;11279;48.364;10.904;2023-03-03T03:33:24;81.53;;;37.20;;
22219;SDS011;11279;48.364;10.904;2023-03-03T03:34:27;85.63;;;35.05;;
22219;SDS011;11279;48.364;10.904;2023-03-03T03:35:27;88.97;;;37.03;;
22219;SDS011;11279;48.364;10.904;2023-03-03T03:36:28;83.80;;;36.10;;
22219;SDS011;11279;48.364;10.904;2023-03-03T03:37:28;87.87;;;37.33;;
22219;SDS011;11279;48.364;10.904;2023-03-03T03:38:29;82.47;;;35.17;;
22219;SDS011;11279;48.364;10.904;2023-03-03T03:39:30;82.57;;;36.88;;
22219;SDS011;11279;48.364;10.904;2023-03-03T03:40:31;82.57;;;37.00;;
22219;SDS011;11279;48.364;10.904;2023-03-03T03:41:31;89.73;;;38.17;;
22219;SDS011;11279;48.364;10.904;2023-03-03T03:42:32;81.40;;;35.50;;
22219;SDS011;11279;48.364;10.904;2023-03-03T03:43:32;76.00;;;35.13;;
22219;SDS011;11279;48.364;10.904;2023-03-03T03:44:32;79.67;;;35.37;;
22219;SDS011;11279;48.364;10.904;2023-03-03T03:45:33;81.67;;;36.57;;
22219;SDS011;11279;48.364;10.904;2023-03-03T03:46:34;87.07;;;35.43;;
22219;SDS011;11279;48.364;10.904;2023-03-03T03:47:34;79.83;;;35.57;;
22219;SDS011;11279;48.364;10.904;2023-03-03T03:48:35;79.47;;;35.53;;
22219;SDS011;11279;48.364;10.904;2023-03-03T03:49:35;85.60;;;39.40;;
22219;SDS011;11279;48.364;10.904;2023-03-03T03:50:36;87.93;;;37.47;;
22219;SDS011;11279;48.364;10.904;2023-03-03T03:51:36;83.40;;;35.93;;
22219;SDS011;11279;48.364;10.904;2023-03-03T03:52:40;89.22;;;37.80;;
22219;SDS011;11279;48.364;10.904;2023-03-03T03:53:42;80.45;;;36.17;;
22219;SDS011;11279;48.364;10.904;2023-03-03T03:54:43;77.73;;;35.87;;
22219;SDS011;11279;48.364;10.904;2023-03-03T03:55:43;77.07;;;35.30;;
22219;SDS011;11279;48.364;10.904;2023-03-03T03:56:44;86.97;;;36.05;;
22219;SDS011;11279;48.364;10.904;2023-03-03T03:57:45;85.90;;;36.73;;
22219;SDS011;11279;48.364;10.904;2023-03-03T03:58:46;84.40;;;35.77;;
22219;SDS011;11279;48.364;10.904;2023-03-03T03:59:48;84.67;;;37.17;;
22219;SDS011;11279;48.364;10.904;2023-03-03T04:00:48;89.57;;;38.00;;
22219;SDS011;11279;48.364;10.904;2023-03-03T04:01:49;81.17;;;37.07;;
22219;SDS011;11279;48.364;10.904;2023-03-03T04:02:50;86.33;;;36.57;;
22219;SDS011;11279;48.364;10.904;2023-03-03T04:03:51;81.50;;;36.03;;
22219;SDS011;11279;48.364;10.904;2023-03-03T04:04:51;82.43;;;37.97;;
22219;SDS011;11279;48.364;10.904;2023-03-03T04:05:52;77.57;;;35.80;;
22219;SDS011;11279;48.364;10.904;2023-03-03T04:06:54;75.47;;;36.15;;
22219;SDS011;11279;48.364;10.904;2023-03-03T04:07:54;83.07;;;36.67;;
22219;SDS011;11279;48.364;10.904;2023-03-03T04:08:55;82.67;;;35.93;;
22219;SDS011;11279;48.364;10.904;2023-03-03T04:09:55;80.90;;;37.23;;
22219;SDS011;11279;48.364;10.904;2023-03-03T04:10:56;78.83;;;36.77;;
22219;SDS011;11279;48.364;10.904;2023-03-03T04:11:56;79.90;;;36.63;;
22219;SDS011;11279;48.364;10.904;2023-03-03T04:12:57;78.80;;;37.40;;
22219;SDS011;11279;48.364;10.904;2023-03-03T04:13:57;85.25;;;36.78;;
22219;SDS011;11279;48.364;10.904;2023-03-03T04:14:58;80.43;;;37.13;;
22219;SDS011;11279;48.364;10.904;2023-03-03T04:15:58;76.53;;;35.63;;
22219;SDS011;11279;48.364;10.904;2023-03-03T04:16:59;72.43;;;35.13;;
22219;SDS011;11279;48.364;10.904;2023-03-03T04:17:59;85.40;;;37.50;;
22219;SDS011;11279;48.364;10.904;2023-03-03T04:18:59;80.50;;;37.03;;
22219;SDS011;11279;48.364;10.904;2023-03-03T04:20:00;77.33;;;33.97;;
22219;SDS011;11279;48.364;10.904;2023-03-03T04:21:01;83.15;;;36.90;;
22219;SDS011;11279;48.364;10.904;2023-03-03T04:22:02;80.30;;;37.67;;
22219;SDS011;11279;48.364;10.904;2023-03-03T04:23:02;82.37;;;36.87;;
22219;SDS011;11279;48.364;10.904;2023-03-03T04:24:03;80.57;;;37.53;;
22219;SDS011;11279;48.364;10.904;2023-03-03T04:25:03;75.20;;;35.90;;
22219;SDS011;11279;48.364;10.904;2023-03-03T04:26:05;85.30;;;36.35;;
22219;SDS011;11279;48.364;10.904;2023-03-03T04:27:05;80.03;;;36.80;;
22219;SDS011;11279;48.364;10.904;2023-03-03T04:28:07;83.45;;;36.95;;
22219;SDS011;11279;48.364;10.904;2023-03-03T04:29:09;79.88;;;36.17;;
22219;SDS011;11279;48.364;10.904;2023-03-03T04:30:10;76.90;;;35.97;;
22219;SDS011;11279;48.364;10.904;2023-03-03T04:31:12;77.10;;;35.25;;
22219;SDS011;11279;48.364;10.904;2023-03-03T04:32:13;76.33;;;35.77;;
22219;SDS011;11279;48.364;10.904;2023-03-03T04:33:13;87.87;;;36.87;;
22219;SDS011;11279;48.364;10.904;2023-03-03T04:34:13;87.53;;;36.50;;
22219;SDS011;11279;48.364;10.904;2023-03-03T04:35:14;82.00;;;36.40;;
22219;SDS011;11279;48.364;10.904;2023-03-03T04:36:14;78.53;;;34.87;;
22219;SDS011;11279;48.364;10.904;2023-03-03T04:37:15;78.53;;;35.13;;
22219;SDS011;11279;48.364;10.904;2023-03-03T04:38:15;81.93;;;36.77;;
22219;SDS011;11279;48.364;10.904;2023-03-03T04:39:16;80.33;;;36.53;;
22219;SDS011;11279;48.364;10.904;2023-03-03T04:40:16;85.30;;;37.13;;
22219;SDS011;11279;48.364;10.904;2023-03-03T04:41:17;80.50;;;36.77;;
22219;SDS011;11279;48.364;10.904;2023-03-03T04:42:17;79.63;;;34.23;;
22219;SDS011;11279;48.364;10.904;2023-03-03T04:43:18;78.63;;;35.20;;
22219;SDS011;11279;48.364;10.904;2023-03-03T04:44:24;76.17;;;36.13;;
22219;SDS011;11279;48.364;10.904;2023-03-03T04:45:27;70.05;;;34.28;;
22219;SDS011;11279;48.364;10.904;2023-03-03T04:46:29;80.50;;;37.50;;
22219;SDS011;11279;48.364;10.904;2023-03-03T04:47:34;80.40;;;36.33;;
22219;SDS011;11279;48.364;10.904;2023-03-03T04:48:34;77.60;;;34.97;;
22219;SDS011;11279;48.364;10.904;2023-03-03T04:49:35;84.90;;;35.70;;
22219;SDS011;11279;48.364;10.904;2023-03-03T04:50:36;74.63;;;34.50;;
22219;SDS011;11279;48.364;10.904;2023-03-03T04:51:36;82.03;;;37.03;;
22219;SDS011;11279;48.364;10.904;2023-03-03T04:52:37;73.27;;;33.97;;
22219;SDS011;11279;48.364;10.904;2023-03-03T04:53:37;78.33;;;34.60;;
22219;SDS011;11279;48.364;10.904;2023-03-03T04:54:38;84.43;;;37.90;;
22219;SDS011;11279;48.364;10.904;2023-03-03T04:55:39;75.47;;;35.20;;
22219;SDS011;11279;48.364;10.904;2023-03-03T04:56:39;81.68;;;36.17;;
22219;SDS011;11279;48.364;10.904;2023-03-03T04:57:40;72.07;;;33.30;;
22219;SDS011;11279;48.364;10.904;2023-03-03T04:58:40;78.37;;;36.67;;
22219;SDS011;11279;48.364;10.904;2023-03-03T04:59:41;77.80;;;36.13;;
22219;SDS011;11279;48.364;10.904;2023-03-03T05:00:41;77.87;;;34.70;;
22219;SDS011;11279;48.364;10.904;2023-03-03T05:01:42;74.83;;;35.70;;
22219;SDS011;11279;48.364;10.904;2023-03-03T05:02:42;76.33;;;35.57;;
22219;SDS011;11279;48.364;10.904;2023-03-03T05:03:42;81.73;;;37.93;;
22219;SDS011;11279;48.364;10.904;2023-03-03T05:04:43;80.87;;;35.70;;
22219;SDS011;11279;48.364;10.904;2023-03-03T05:05:45;82.27;;;35.83;;
22219;SDS011;11279;48.364;10.904;2023-03-03T05:06:45;71.18;;;33.75;;
22219;SDS011;11279;48.364;10.904;2023-03-03T05:07:46;76.77;;;35.10;;
22219;SDS011;11279;48.364;10.904;2023-03-03T05:08:46;76.70;;;35.33;;
22219;SDS011;11279;48.364;10.904;2023-03-03T05:09:47;74.30;;;35.47;;
22219;SDS011;11279;48.364;10.904;2023-03-03T05:10:50;77.90;;;35.40;;
22219;SDS011;11279;48.364;10.904;2023-03-03T05:11:54;76.72;;;36.22;;
22219;SDS011;11279;48.364;10.904;2023-03-03T05:12:54;77.00;;;34.63;;
22219;SDS011;11279;48.364;10.904;2023-03-03T05:13:55;80.23;;;35.10;;
22219;SDS011;11279;48.364;10.904;2023-03-03T05:14:55;74.80;;;35.47;;
22219;SDS011;11279;48.364;10.904;2023-03-03T05:15:56;81.80;;;36.37;;
22219;SDS011;11279;48.364;10.904;2023-03-03T05:16:56;77.30;;;36.43;;
22219;SDS011;11279;48.364;10.904;2023-03-03T05:17:57;80.30;;;35.60;;
22219;SDS011;11279;48.364;10.904;2023-03-03T05:18:57;79.20;;;35.83;;
22219;SDS011;11279;48.364;10.904;2023-03-03T05:19:58;79.07;;;37.53;;
22219;SDS011;11279;48.364;10.904;2023-03-03T05:20:58;77.33;;;34.50;;
22219;SDS011;11279;48.364;10.904;2023-03-03T05:21:59;79.20;;;36.43;;
22219;SDS011;11279;48.364;10.904;2023-03-03T05:22:59;80.03;;;37.07;;
22219;SDS011;11279;48.364;10.904;2023-03-03T05:24:00;73.33;;;34.83;;
22219;SDS011;11279;48.364;10.904;2023-03-03T05:25:01;77.00;;;36.40;;
22219;SDS011;11279;48.364;10.904;2023-03-03T05:26:01;76.37;;;35.63;;
22219;SDS011;11279;48.364;10.904;2023-03-03T05:27:02;78.13;;;34.70;;
22219;SDS011;11279;48.364;10.904;2023-03-03T05:28:02;72.47;;;34.50;;
22219;SDS011;11279;48.364;10.904;2023-03-03T05:29:04;78.88;;;34.80;;
22219;SDS011;11279;48.364;10.904;2023-03-03T05:30:05;71.93;;;33.67;;
22219;SDS011;11279;48.364;10.904;2023-03-03T05:31:05;74.40;;;35.72;;
22219;SDS011;11279;48.364;10.904;2023-03-03T05:32:06;77.70;;;35.63;;
22219;SDS011;11279;48.364;10.904;2023-03-03T05:33:06;74.60;;;35.80;;
22219;SDS011;11279;48.364;10.904;2023-03-03T05:34:07;78.57;;;36.33;;
22219;SDS011;11279;48.364;10.904;2023-03-03T05:35:08;80.83;;;36.10;;
22219;SDS011;11279;48.364;10.904;2023-03-03T05:36:08;79.03;;;36.80;;
22219;SDS011;11279;48.364;10.904;2023-03-03T05:37:09;72.43;;;35.23;;
22219;SDS011;11279;48.364;10.904;2023-03-03T05:38:09;80.90;;;36.30;;
22219;SDS011;11279;48.364;10.904;2023-03-03T05:39:10;76.33;;;34.73;;
22219;SDS011;11279;48.364;10.904;2023-03-03T05:40:10;81.97;;;38.17;;
22219;SDS011;11279;48.364;10.904;2023-03-03T05:41:11;72.30;;;34.97;;
22219;SDS011;11279;48.364;10.904;2023-03-03T05:42:12;74.27;;;34.73;;
22219;SDS011;11279;48.364;10.904;2023-03-03T05:43:12;80.97;;;36.10;;
22219;SDS011;11279;48.364;10.904;2023-03-03T05:44:13;80.10;;;35.80;;
22219;SDS011;11279;48.364;10.904;2023-03-03T05:45:13;75.73;;;36.33;;
22219;SDS011;11279;48.364;10.904;2023-03-03T05:46:14;73.93;;;35.37;;
22219;SDS011;11279;48.364;10.904;2023-03-03T05:47:14;78.80;;;36.67;;
22219;SDS011;11279;48.364;10.904;2023-03-03T05:48:14;82.30;;;36.27;;
22219;SDS011;11279;48.364;10.904;2023-03-03T05:49:15;79.77;;;36.53;;
22219;SDS011;11279;48.364;10.904;2023-03-03T05:50:16;71.73;;;35.17;;
22219;SDS011;11279;48.364;10.904;2023-03-03T05:51:17;78.75;;;36.17;;
22219;SDS011;11279;48.364;10.904;2023-03-03T05:52:17;76.37;;;35.47;;
22219;SDS011;11279;48.364;10.904;2023-03-03T05:53:17;71.97;;;35.30;;
22219;SDS011;11279;48.364;10.904;2023-03-03T05:54:18;71.80;;;33.67;;
22219;SDS011;11279;48.364;10.904;2023-03-03T05:55:18;76.93;;;35.83;;
22219;SDS011;11279;48.364;10.904;2023-03-03T05:56:19;75.87;;;36.20;;
22219;SDS011;11279;48.364;10.904;2023-03-03T05:57:19;79.40;;;36.07;;
22219;SDS011;11279;48.364;10.904;2023-03-03T05:58:20;74.60;;;35.07;;
22219;SDS011;11279;48.364;10.904;2023-03-03T05:59:21;73.30;;;35.28;;
22219;SDS011;11279;48.364;10.904;2023-03-03T06:00:21;76.80;;;36.03;;
22219;SDS011;11279;48.364;10.904;2023-03-03T06:01:22;79.53;;;35.43;;